Cfl Racer — PJMV — position and weather

sailwx.info

Track history (hours):
 
Tides and Currents Weather Stations Pressure Air Temp Water Temp Dewpoint Dewpoint Depression Visibility Wind Speed Wind Dir Waves Ship Positions

Cfl Racer

Last reported at 2014-Sep-19 11:33 UTC. Time now 2014-Sep-19 11:49 UTC.
Position N 51°19' E 003°49'.

Length 83 m; draft 3.1 m.

Type: Cargo ship. MMSI: 306762000.

Date/timePositionNaut miles runAvg speedWind from/ knotsBaromVisibWave heightAir tempDewpointWater temp
2014-Sep-19 11:33N 51°19' E 003°49'0 0.0
2014-Sep-19 10:32N 51°19' E 003°49'0 0.0
2014-Sep-19 09:33N 51°19' E 003°49'0 0.0
2014-Sep-19 08:32N 51°19' E 003°49'0 0.0
2014-Sep-19 07:33N 51°19' E 003°49'0 0.0
2014-Sep-19 06:33N 51°19' E 003°49'0 0.0
2014-Sep-19 05:33N 51°19' E 003°49'0 0.0
2014-Sep-19 04:32N 51°19' E 003°49'0 0.0
2014-Sep-19 03:32N 51°19' E 003°49'0 0.0
2014-Sep-19 02:32N 51°19' E 003°49'0 0.0
2014-Sep-19 01:32N 51°19' E 003°49'0 0.0
2014-Sep-19 00:32N 51°19' E 003°49'0 0.0
2014-Sep-18 23:33N 51°19' E 003°49'0 0.0
2014-Sep-18 22:32N 51°19' E 003°49'0 0.0
2014-Sep-18 21:32N 51°19' E 003°49'0 0.0
2014-Sep-18 20:32N 51°19' E 003°49'0 0.0
2014-Sep-18 19:26N 51°19' E 003°49'0 0.0
2014-Sep-18 18:32N 51°19' E 003°49'0 0.0
2014-Sep-18 17:32N 51°19' E 003°49'0 0.0
2014-Sep-18 16:32N 51°19' E 003°49'0 0.0
2014-Sep-18 15:33N 51°19' E 003°49'0 0.0
2014-Sep-18 14:33N 51°19' E 003°49'0 0.0
2014-Sep-18 13:32N 51°19' E 003°49'0 0.0
2014-Sep-18 12:23N 51°19' E 003°49'0 0.0
2014-Sep-18 11:32N 51°19' E 003°49'0 0.0
2014-Sep-18 10:32N 51°19' E 003°49'0 0.0
2014-Sep-18 09:29N 51°19' E 003°49'0 0.0
2014-Sep-18 08:29N 51°19' E 003°49'0 0.0
2014-Sep-18 07:32N 51°19' E 003°49'0 0.0
2014-Sep-18 06:32N 51°19' E 003°49'0 0.0
2014-Sep-18 05:29N 51°19' E 003°49'0 0.0
2014-Sep-18 04:32N 51°19' E 003°49'0 0.0
2014-Sep-18 03:32N 51°19' E 003°49'0 0.1
2014-Sep-18 02:33N 51°19' E 003°49'2 2.1
2014-Sep-18 01:33N 51°21' E 003°48'9 9.3
2014-Sep-18 00:33N 51°25' E 003°34'9 9.3
2014-Sep-17 23:33N 51°32' E 003°25'1110.6
2014-Sep-17 22:33N 51°42' E 003°17'10 9.7
2014-Sep-17 21:33N 51°51' E 003°16'7810.8
2014-Sep-17 14:18N 52°52' E 004°37'810.5
2014-Sep-17 13:33N 52°59' E 004°45'2 2.1
2014-Sep-17 12:28N 52°59' E 004°48'0 0.0
2014-Sep-17 11:25N 52°59' E 004°48'0 0.0
2014-Sep-17 10:28N 52°59' E 004°48'0 0.0
2014-Sep-17 09:31N 52°59' E 004°48'0 0.0
2014-Sep-17 08:31N 52°59' E 004°48'0 0.1
2014-Sep-17 07:31N 52°59' E 004°48'0 0.0
2014-Sep-17 06:31N 52°59' E 004°48'0 0.0
2014-Sep-17 05:31N 52°59' E 004°48'0 0.0
2014-Sep-17 04:31N 52°59' E 004°48'0 0.0
2014-Sep-17 03:31N 52°59' E 004°48'0 0.0
2014-Sep-17 02:31N 52°59' E 004°48'0 0.0
2014-Sep-17 01:25N 52°59' E 004°48'0 0.1
2014-Sep-17 00:22N 52°59' E 004°48'0 0.0
2014-Sep-16 23:25N 52°59' E 004°48'0 0.0
2014-Sep-16 22:25N 52°59' E 004°48'0 0.0
2014-Sep-16 21:28N 52°59' E 004°48'0 0.0
2014-Sep-16 20:28N 52°59' E 004°48'0 0.0
2014-Sep-16 19:28N 52°59' E 004°48'0 0.1
2014-Sep-16 18:25N 52°59' E 004°48'0 0.0
2014-Sep-16 17:31N 52°59' E 004°48'0 0.0
2014-Sep-16 16:31N 52°59' E 004°48'0 0.0
2014-Sep-16 15:31N 52°59' E 004°48'0 0.0
2014-Sep-16 14:31N 52°59' E 004°48'0 0.0
2014-Sep-16 13:31N 52°59' E 004°48'0 0.1
2014-Sep-16 12:31N 52°59' E 004°48'0 0.0
2014-Sep-16 11:22N 52°59' E 004°48'0 0.0
2014-Sep-16 10:22N 52°59' E 004°48'0 0.0
2014-Sep-16 09:10N 52°59' E 004°48'0 0.0
2014-Sep-16 08:25N 52°59' E 004°48'0 0.0
2014-Sep-16 07:22N 52°59' E 004°48'0 0.1
2014-Sep-16 06:28N 52°59' E 004°48'0 0.0
2014-Sep-16 05:28N 52°59' E 004°48'0 0.0
2014-Sep-16 04:25N 52°59' E 004°48'0 0.0
2014-Sep-16 03:31N 52°59' E 004°48'0 0.0
2014-Sep-16 02:31N 52°59' E 004°48'0 0.0
2014-Sep-16 01:31N 52°59' E 004°48'0 0.0
2014-Sep-16 00:31N 52°59' E 004°48'0 0.1
2014-Sep-15 23:31N 52°59' E 004°48'0 0.0
2014-Sep-15 22:31N 52°59' E 004°48'0 0.0
2014-Sep-15 21:31N 52°59' E 004°48'0 0.0
2014-Sep-15 20:22N 52°59' E 004°48'0 0.0
2014-Sep-15 19:31N 52°59' E 004°48'0 0.1
2014-Sep-15 18:25N 52°59' E 004°48'0 0.1
2014-Sep-15 17:28N 52°59' E 004°48'0 0.0
2014-Sep-15 16:25N 52°59' E 004°48'0 0.0
2014-Sep-15 15:31N 52°59' E 004°48'0 0.0
2014-Sep-15 14:28N 52°59' E 004°48'0 0.0
2014-Sep-15 13:28N 52°59' E 004°48'0 0.0
2014-Sep-15 12:28N 52°59' E 004°48'0 0.1
2014-Sep-15 11:31N 52°59' E 004°48'0 0.0
2014-Sep-15 10:30N 52°59' E 004°48'0 0.0
2014-Sep-15 09:30N 52°59' E 004°48'0 0.0
2014-Sep-15 08:19N 52°59' E 004°48'0 0.0
2014-Sep-15 07:33N 52°59' E 004°48'0 0.0
2014-Sep-15 06:22N 52°59' E 004°48'0 0.1
2014-Sep-15 05:31N 52°59' E 004°48'0 0.0
2014-Sep-15 04:25N 52°59' E 004°48'0 0.0
2014-Sep-15 03:21N 52°59' E 004°48'0 0.0
2014-Sep-15 02:28N 52°59' E 004°48'0 0.0
2014-Sep-15 01:25N 52°59' E 004°48'0 0.0
2014-Sep-15 00:28N 52°59' E 004°48'0 0.1
2014-Sep-14 23:27N 52°59' E 004°48'0 0.1
2014-Sep-14 22:31N 52°59' E 004°48'0 0.0
2014-Sep-14 21:31N 52°59' E 004°48'0 0.0
2014-Sep-14 20:31N 52°59' E 004°48'0 0.0
2014-Sep-14 19:27N 52°59' E 004°48'0 0.0
2014-Sep-14 18:30N 52°59' E 004°48'0 0.1
2014-Sep-14 17:33N 52°59' E 004°48'0 0.0
2014-Sep-14 16:33N 52°59' E 004°48'0 0.0
2014-Sep-14 15:33N 52°59' E 004°48'0 0.0
2014-Sep-14 14:33N 52°59' E 004°48'0 0.0
2014-Sep-14 13:33N 52°59' E 004°48'0 0.0
2014-Sep-14 12:33N 52°59' E 004°48'0 0.0
2014-Sep-14 11:33N 52°59' E 004°48'0 0.1
2014-Sep-14 10:24N 52°59' E 004°48'0 0.0
2014-Sep-14 09:27N 52°59' E 004°48'0 0.0
2014-Sep-14 08:33N 52°59' E 004°48'0 0.0
2014-Sep-14 07:28N 52°59' E 004°48'0 0.0
2014-Sep-14 06:31N 52°59' E 004°48'0 0.1
2014-Sep-14 05:30N 52°59' E 004°48'0 0.0
2014-Sep-14 04:30N 52°59' E 004°48'0 0.0
2014-Sep-14 03:33N 52°59' E 004°48'0 0.0
2014-Sep-14 02:30N 52°59' E 004°48'0 0.0
2014-Sep-14 01:33N 52°59' E 004°48'0 0.0
2014-Sep-13 21:33N 52°59' E 004°48'0 0.0
2014-Sep-13 20:33N 52°59' E 004°48'0 0.0
2014-Sep-13 19:24N 52°59' E 004°48'0 0.0
2014-Sep-13 18:33N 52°59' E 004°48'0 0.1
2014-Sep-13 17:33N 52°59' E 004°48'0 0.0
2014-Sep-13 16:24N 52°59' E 004°48'0 0.0
2014-Sep-13 15:30N 52°59' E 004°48'0 0.0
2014-Sep-13 14:30N 52°59' E 004°48'0 0.0
2014-Sep-13 13:30N 52°59' E 004°48'0 0.0
2014-Sep-13 12:30N 52°59' E 004°48'0 0.0
2014-Sep-13 06:33N 52°59' E 004°48'0 0.0
2014-Sep-12 22:30N 52°59' E 004°48'0 0.0
2014-Sep-12 14:33N 52°59' E 004°48'0 0.0
2014-Sep-12 09:18N 52°59' E 004°48'0 0.0
2014-Sep-12 08:33N 52°59' E 004°48'0 0.0
2014-Sep-12 02:33N 52°59' E 004°48'0 0.0
2014-Sep-11 06:21N 52°59' E 004°48'0 0.0
2014-Sep-11 05:27N 52°59' E 004°48'0 0.0
2014-Sep-11 04:27N 52°59' E 004°48'0 0.1
2014-Sep-11 03:30N 52°59' E 004°48'0 0.0
2014-Sep-11 02:30N 52°59' E 004°48'0 0.0
2014-Sep-11 01:30N 52°59' E 004°48'0 0.0
2014-Sep-11 00:30N 52°59' E 004°48'0 0.0
2014-Sep-10 23:33N 52°59' E 004°48'0 0.0
2014-Sep-10 22:33N 52°59' E 004°48'0 0.0
2014-Sep-10 21:33N 52°59' E 004°48'0 0.1
2014-Sep-10 20:33N 52°59' E 004°48'0 0.0
2014-Sep-10 19:33N 52°59' E 004°48'0 0.0
2014-Sep-10 18:33N 52°59' E 004°48'0 0.0
2014-Sep-10 17:24N 52°59' E 004°48'0 0.0
2014-Sep-10 16:33N 52°59' E 004°48'0 0.4
2014-Sep-10 15:33N 52°59' E 004°48'10 9.7
2014-Sep-10 14:33N 52°53' E 004°35'1110.8
2014-Sep-10 13:32N 53°01' E 004°23'3510.1
2014-Sep-10 10:04N 53°32' E 004°51'9 8.9
2014-Sep-10 09:04N 53°36' E 005°04'2 4.2
2014-Sep-10 08:33N 53°38' E 005°06'4 3.7
2014-Sep-10 07:30N 53°34' E 005°05'8 8.7
2014-Sep-10 06:33N 53°37' E 005°18'9 8.6
2014-Sep-10 05:33N 53°39' E 005°32'9 9.3
2014-Sep-10 04:33N 53°42' E 005°47'68 9.7
2014-Sep-09 21:33N 53°60' E 007°38'7 6.2
2014-Sep-09 20:22N 53°54' E 007°45'5 6.6
2014-Sep-09 19:33N 53°52' E 007°53'7 7.4
2014-Sep-09 18:33N 53°50' E 008°05'1211.9
2014-Sep-09 17:33N 53°42' E 008°20'1313.1
2014-Sep-09 16:33N 53°32' E 008°34'1313.0
2014-Sep-09 15:33N 53°19' E 008°29'1110.7
2014-Sep-09 14:34N 53°09' E 008°38'4 3.6
2014-Sep-09 13:32N 53°07' E 008°43'0 0.4
2014-Sep-09 12:31N 53°08' E 008°43'  
Track history (hours):
 
Tides and Currents Weather Stations Pressure Air Temp Water Temp Dewpoint Dewpoint Depression Visibility Wind Speed Wind Dir Waves Ship Positions

Cfl Racer

Last reported at 2014-Sep-19 11:33 UTC. Time now 2014-Sep-19 11:49 UTC.
Position N 51°19' E 003°49'.

Length 83 m; draft 3.1 m.

Type: Cargo ship. MMSI: 306762000.

Date/timePositionNaut miles runAvg speedWind from/ knotsBaromVisibWave heightAir tempDewpointWater temp
2014-Sep-19 11:33N 51°19' E 003°49'0 0.0
2014-Sep-19 10:32N 51°19' E 003°49'0 0.0
2014-Sep-19 09:33N 51°19' E 003°49'0 0.0
2014-Sep-19 08:32N 51°19' E 003°49'0 0.0
2014-Sep-19 07:33N 51°19' E 003°49'0 0.0
2014-Sep-19 06:33N 51°19' E 003°49'0 0.0
2014-Sep-19 05:33N 51°19' E 003°49'0 0.0
2014-Sep-19 04:32N 51°19' E 003°49'0 0.0
2014-Sep-19 03:32N 51°19' E 003°49'0 0.0
2014-Sep-19 02:32N 51°19' E 003°49'0 0.0
2014-Sep-19 01:32N 51°19' E 003°49'0 0.0
2014-Sep-19 00:32N 51°19' E 003°49'0 0.0
2014-Sep-18 23:33N 51°19' E 003°49'0 0.0
2014-Sep-18 22:32N 51°19' E 003°49'0 0.0
2014-Sep-18 21:32N 51°19' E 003°49'0 0.0
2014-Sep-18 20:32N 51°19' E 003°49'0 0.0
2014-Sep-18 19:26N 51°19' E 003°49'0 0.0
2014-Sep-18 18:32N 51°19' E 003°49'0 0.0
2014-Sep-18 17:32N 51°19' E 003°49'0 0.0
2014-Sep-18 16:32N 51°19' E 003°49'0 0.0
2014-Sep-18 15:33N 51°19' E 003°49'0 0.0
2014-Sep-18 14:33N 51°19' E 003°49'0 0.0
2014-Sep-18 13:32N 51°19' E 003°49'0 0.0
2014-Sep-18 12:23N 51°19' E 003°49'0 0.0
2014-Sep-18 11:32N 51°19' E 003°49'0 0.0
2014-Sep-18 10:32N 51°19' E 003°49'0 0.0
2014-Sep-18 09:29N 51°19' E 003°49'0 0.0
2014-Sep-18 08:29N 51°19' E 003°49'0 0.0
2014-Sep-18 07:32N 51°19' E 003°49'0 0.0
2014-Sep-18 06:32N 51°19' E 003°49'0 0.0
2014-Sep-18 05:29N 51°19' E 003°49'0 0.0
2014-Sep-18 04:32N 51°19' E 003°49'0 0.0
2014-Sep-18 03:32N 51°19' E 003°49'0 0.1
2014-Sep-18 02:33N 51°19' E 003°49'2 2.1
2014-Sep-18 01:33N 51°21' E 003°48'9 9.3
2014-Sep-18 00:33N 51°25' E 003°34'9 9.3
2014-Sep-17 23:33N 51°32' E 003°25'1110.6
2014-Sep-17 22:33N 51°42' E 003°17'10 9.7
2014-Sep-17 21:33N 51°51' E 003°16'7810.8
2014-Sep-17 14:18N 52°52' E 004°37'810.5
2014-Sep-17 13:33N 52°59' E 004°45'2 2.1
2014-Sep-17 12:28N 52°59' E 004°48'0 0.0
2014-Sep-17 11:25N 52°59' E 004°48'0 0.0
2014-Sep-17 10:28N 52°59' E 004°48'0 0.0
2014-Sep-17 09:31N 52°59' E 004°48'0 0.0
2014-Sep-17 08:31N 52°59' E 004°48'0 0.1
2014-Sep-17 07:31N 52°59' E 004°48'0 0.0
2014-Sep-17 06:31N 52°59' E 004°48'0 0.0
2014-Sep-17 05:31N 52°59' E 004°48'0 0.0
2014-Sep-17 04:31N 52°59' E 004°48'0 0.0
2014-Sep-17 03:31N 52°59' E 004°48'0 0.0
2014-Sep-17 02:31N 52°59' E 004°48'0 0.0
2014-Sep-17 01:25N 52°59' E 004°48'0 0.1
2014-Sep-17 00:22N 52°59' E 004°48'0 0.0
2014-Sep-16 23:25N 52°59' E 004°48'0 0.0
2014-Sep-16 22:25N 52°59' E 004°48'0 0.0
2014-Sep-16 21:28N 52°59' E 004°48'0 0.0
2014-Sep-16 20:28N 52°59' E 004°48'0 0.0
2014-Sep-16 19:28N 52°59' E 004°48'0 0.1
2014-Sep-16 18:25N 52°59' E 004°48'0 0.0
2014-Sep-16 17:31N 52°59' E 004°48'0 0.0
2014-Sep-16 16:31N 52°59' E 004°48'0 0.0
2014-Sep-16 15:31N 52°59' E 004°48'0 0.0
2014-Sep-16 14:31N 52°59' E 004°48'0 0.0
2014-Sep-16 13:31N 52°59' E 004°48'0 0.1
2014-Sep-16 12:31N 52°59' E 004°48'0 0.0
2014-Sep-16 11:22N 52°59' E 004°48'0 0.0
2014-Sep-16 10:22N 52°59' E 004°48'0 0.0
2014-Sep-16 09:10N 52°59' E 004°48'0 0.0
2014-Sep-16 08:25N 52°59' E 004°48'0 0.0
2014-Sep-16 07:22N 52°59' E 004°48'0 0.1
2014-Sep-16 06:28N 52°59' E 004°48'0 0.0
2014-Sep-16 05:28N 52°59' E 004°48'0 0.0
2014-Sep-16 04:25N 52°59' E 004°48'0 0.0
2014-Sep-16 03:31N 52°59' E 004°48'0 0.0
2014-Sep-16 02:31N 52°59' E 004°48'0 0.0
2014-Sep-16 01:31N 52°59' E 004°48'0 0.0
2014-Sep-16 00:31N 52°59' E 004°48'0 0.1
2014-Sep-15 23:31N 52°59' E 004°48'0 0.0
2014-Sep-15 22:31N 52°59' E 004°48'0 0.0
2014-Sep-15 21:31N 52°59' E 004°48'0 0.0
2014-Sep-15 20:22N 52°59' E 004°48'0 0.0
2014-Sep-15 19:31N 52°59' E 004°48'0 0.1
2014-Sep-15 18:25N 52°59' E 004°48'0 0.1
2014-Sep-15 17:28N 52°59' E 004°48'0 0.0
2014-Sep-15 16:25N 52°59' E 004°48'0 0.0
2014-Sep-15 15:31N 52°59' E 004°48'0 0.0
2014-Sep-15 14:28N 52°59' E 004°48'0 0.0
2014-Sep-15 13:28N 52°59' E 004°48'0 0.0
2014-Sep-15 12:28N 52°59' E 004°48'0 0.1
2014-Sep-15 11:31N 52°59' E 004°48'0 0.0
2014-Sep-15 10:30N 52°59' E 004°48'0 0.0
2014-Sep-15 09:30N 52°59' E 004°48'0 0.0
2014-Sep-15 08:19N 52°59' E 004°48'0 0.0
2014-Sep-15 07:33N 52°59' E 004°48'0 0.0
2014-Sep-15 06:22N 52°59' E 004°48'0 0.1
2014-Sep-15 05:31N 52°59' E 004°48'0 0.0
2014-Sep-15 04:25N 52°59' E 004°48'0 0.0
2014-Sep-15 03:21N 52°59' E 004°48'0 0.0
2014-Sep-15 02:28N 52°59' E 004°48'0 0.0
2014-Sep-15 01:25N 52°59' E 004°48'0 0.0
2014-Sep-15 00:28N 52°59' E 004°48'0 0.1
2014-Sep-14 23:27N 52°59' E 004°48'0 0.1
2014-Sep-14 22:31N 52°59' E 004°48'0 0.0
2014-Sep-14 21:31N 52°59' E 004°48'0 0.0
2014-Sep-14 20:31N 52°59' E 004°48'0 0.0
2014-Sep-14 19:27N 52°59' E 004°48'0 0.0
2014-Sep-14 18:30N 52°59' E 004°48'0 0.1
2014-Sep-14 17:33N 52°59' E 004°48'0 0.0
2014-Sep-14 16:33N 52°59' E 004°48'0 0.0
2014-Sep-14 15:33N 52°59' E 004°48'0 0.0
2014-Sep-14 14:33N 52°59' E 004°48'0 0.0
2014-Sep-14 13:33N 52°59' E 004°48'0 0.0
2014-Sep-14 12:33N 52°59' E 004°48'0 0.0
2014-Sep-14 11:33N 52°59' E 004°48'0 0.1
2014-Sep-14 10:24N 52°59' E 004°48'0 0.0
2014-Sep-14 09:27N 52°59' E 004°48'0 0.0
2014-Sep-14 08:33N 52°59' E 004°48'0 0.0
2014-Sep-14 07:28N 52°59' E 004°48'0 0.0
2014-Sep-14 06:31N 52°59' E 004°48'0 0.1
2014-Sep-14 05:30N 52°59' E 004°48'0 0.0
2014-Sep-14 04:30N 52°59' E 004°48'0 0.0
2014-Sep-14 03:33N 52°59' E 004°48'0 0.0
2014-Sep-14 02:30N 52°59' E 004°48'0 0.0
2014-Sep-14 01:33N 52°59' E 004°48'0 0.0
2014-Sep-13 21:33N 52°59' E 004°48'0 0.0
2014-Sep-13 20:33N 52°59' E 004°48'0 0.0
2014-Sep-13 19:24N 52°59' E 004°48'0 0.0
2014-Sep-13 18:33N 52°59' E 004°48'0 0.1
2014-Sep-13 17:33N 52°59' E 004°48'0 0.0
2014-Sep-13 16:24N 52°59' E 004°48'0 0.0
2014-Sep-13 15:30N 52°59' E 004°48'0 0.0
2014-Sep-13 14:30N 52°59' E 004°48'0 0.0
2014-Sep-13 13:30N 52°59' E 004°48'0 0.0
2014-Sep-13 12:30N 52°59' E 004°48'0 0.0
2014-Sep-13 06:33N 52°59' E 004°48'0 0.0
2014-Sep-12 22:30N 52°59' E 004°48'0 0.0
2014-Sep-12 14:33N 52°59' E 004°48'0 0.0
2014-Sep-12 09:18N 52°59' E 004°48'0 0.0
2014-Sep-12 08:33N 52°59' E 004°48'0 0.0
2014-Sep-12 02:33N 52°59' E 004°48'0 0.0
2014-Sep-11 06:21N 52°59' E 004°48'0 0.0
2014-Sep-11 05:27N 52°59' E 004°48'0 0.0
2014-Sep-11 04:27N 52°59' E 004°48'0 0.1
2014-Sep-11 03:30N 52°59' E 004°48'0 0.0
2014-Sep-11 02:30N 52°59' E 004°48'0 0.0
2014-Sep-11 01:30N 52°59' E 004°48'0 0.0
2014-Sep-11 00:30N 52°59' E 004°48'0 0.0
2014-Sep-10 23:33N 52°59' E 004°48'0 0.0
2014-Sep-10 22:33N 52°59' E 004°48'0 0.0
2014-Sep-10 21:33N 52°59' E 004°48'0 0.1
2014-Sep-10 20:33N 52°59' E 004°48'0 0.0
2014-Sep-10 19:33N 52°59' E 004°48'0 0.0
2014-Sep-10 18:33N 52°59' E 004°48'0 0.0
2014-Sep-10 17:24N 52°59' E 004°48'0 0.0
2014-Sep-10 16:33N 52°59' E 004°48'0 0.4
2014-Sep-10 15:33N 52°59' E 004°48'10 9.7
2014-Sep-10 14:33N 52°53' E 004°35'1110.8
2014-Sep-10 13:32N 53°01' E 004°23'3510.1
2014-Sep-10 10:04N 53°32' E 004°51'9 8.9
2014-Sep-10 09:04N 53°36' E 005°04'2 4.2
2014-Sep-10 08:33N 53°38' E 005°06'4 3.7
2014-Sep-10 07:30N 53°34' E 005°05'8 8.7
2014-Sep-10 06:33N 53°37' E 005°18'9 8.6
2014-Sep-10 05:33N 53°39' E 005°32'9 9.3
2014-Sep-10 04:33N 53°42' E 005°47'68 9.7
2014-Sep-09 21:33N 53°60' E 007°38'7 6.2
2014-Sep-09 20:22N 53°54' E 007°45'5 6.6
2014-Sep-09 19:33N 53°52' E 007°53'7 7.4
2014-Sep-09 18:33N 53°50' E 008°05'1211.9
2014-Sep-09 17:33N 53°42' E 008°20'1313.1
2014-Sep-09 16:33N 53°32' E 008°34'1313.0
2014-Sep-09 15:33N 53°19' E 008°29'1110.7
2014-Sep-09 14:34N 53°09' E 008°38'4 3.6
2014-Sep-09 13:32N 53°07' E 008°43'0 0.4
2014-Sep-09 12:31N 53°08' E 008°43'  

Dump ship's entire track history